sensor_id;sensor_type;location;lat;lon;timestamp;P1;durP1;ratioP1;P2;durP2;ratioP2
41229;SDS011;26964;50.428;19.218;2023-05-24T16:18:46;10.2;;;6.3;;
41229;SDS011;26964;50.428;19.218;2023-05-24T16:19:46;11.9;;;7.1;;
41229;SDS011;26964;50.428;19.218;2023-05-24T16:20:46;11.0;;;6.8;;
41229;SDS011;26964;50.428;19.218;2023-05-24T16:21:46;9.2;;;6.1;;
41229;SDS011;26964;50.428;19.218;2023-05-24T16:22:46;7.6;;;6.3;;
41229;SDS011;26964;50.428;19.218;2023-05-24T16:23:46;9.7;;;6.5;;
41229;SDS011;26964;50.428;19.218;2023-05-24T16:24:46;12.3;;;6.6;;
41229;SDS011;26964;50.428;19.218;2023-05-24T16:25:46;9.0;;;6.4;;
41229;SDS011;26964;50.428;19.218;2023-05-24T16:26:46;9.6;;;6.8;;
41229;SDS011;26964;50.428;19.218;2023-05-24T16:27:46;10.5;;;6.9;;
41229;SDS011;26964;50.428;19.218;2023-05-24T16:28:46;11.5;;;6.9;;
41229;SDS011;26964;50.428;19.218;2023-05-24T16:29:46;9.6;;;6.4;;
41229;SDS011;26964;50.428;19.218;2023-05-24T16:30:46;9.4;;;6.3;;
41229;SDS011;26964;50.428;19.218;2023-05-24T16:31:46;8.2;;;5.8;;
41229;SDS011;26964;50.428;19.218;2023-05-24T16:32:46;7.8;;;6.2;;
41229;SDS011;26964;50.428;19.218;2023-05-24T16:33:46;8.0;;;5.8;;
41229;SDS011;26964;50.428;19.218;2023-05-24T16:34:46;11.5;;;6.2;;
41229;SDS011;26964;50.428;19.218;2023-05-24T16:35:46;10.1;;;6.5;;
41229;SDS011;26964;50.428;19.218;2023-05-24T16:36:46;8.1;;;6.2;;
41229;SDS011;26964;50.428;19.218;2023-05-24T16:37:46;8.0;;;6.0;;
41229;SDS011;26964;50.428;19.218;2023-05-24T16:38:46;8.6;;;6.1;;
41229;SDS011;26964;50.428;19.218;2023-05-24T16:39:46;8.7;;;5.9;;
41229;SDS011;26964;50.428;19.218;2023-05-24T16:40:46;11.3;;;6.2;;
41229;SDS011;26964;50.428;19.218;2023-05-24T16:41:46;10.5;;;6.4;;
41229;SDS011;26964;50.428;19.218;2023-05-24T16:42:46;10.9;;;6.5;;
41229;SDS011;26964;50.428;19.218;2023-05-24T16:43:46;10.7;;;6.5;;
41229;SDS011;26964;50.428;19.218;2023-05-24T16:44:46;8.3;;;6.4;;
41229;SDS011;26964;50.428;19.218;2023-05-24T16:45:46;12.1;;;6.9;;
41229;SDS011;26964;50.428;19.218;2023-05-24T16:46:46;10.4;;;6.9;;
41229;SDS011;26964;50.428;19.218;2023-05-24T16:47:46;11.3;;;7.1;;
41229;SDS011;26964;50.428;19.218;2023-05-24T16:48:46;9.8;;;6.3;;
41229;SDS011;26964;50.428;19.218;2023-05-24T16:49:46;9.6;;;6.6;;
41229;SDS011;26964;50.428;19.218;2023-05-24T16:50:46;9.7;;;6.6;;
41229;SDS011;26964;50.428;19.218;2023-05-24T16:51:46;10.3;;;7.1;;
41229;SDS011;26964;50.428;19.218;2023-05-24T16:52:46;11.3;;;6.5;;
41229;SDS011;26964;50.428;19.218;2023-05-24T16:53:46;10.6;;;6.9;;
41229;SDS011;26964;50.428;19.218;2023-05-24T16:54:46;11.4;;;7.3;;
41229;SDS011;26964;50.428;19.218;2023-05-24T16:55:46;10.8;;;6.3;;
41229;SDS011;26964;50.428;19.218;2023-05-24T16:56:46;10.7;;;6.5;;
41229;SDS011;26964;50.428;19.218;2023-05-24T16:57:46;12.4;;;7.1;;
41229;SDS011;26964;50.428;19.218;2023-05-24T16:58:46;11.5;;;6.4;;
41229;SDS011;26964;50.428;19.218;2023-05-24T16:59:46;9.6;;;7.0;;
41229;SDS011;26964;50.428;19.218;2023-05-24T17:00:46;10.6;;;6.2;;
41229;SDS011;26964;50.428;19.218;2023-05-24T17:01:46;11.8;;;6.1;;
41229;SDS011;26964;50.428;19.218;2023-05-24T17:02:46;9.9;;;6.2;;
41229;SDS011;26964;50.428;19.218;2023-05-24T17:03:46;10.9;;;6.3;;
41229;SDS011;26964;50.428;19.218;2023-05-24T17:04:46;9.5;;;6.7;;
41229;SDS011;26964;50.428;19.218;2023-05-24T17:05:46;14.0;;;6.9;;
41229;SDS011;26964;50.428;19.218;2023-05-24T17:06:46;10.4;;;6.2;;
41229;SDS011;26964;50.428;19.218;2023-05-24T17:07:46;11.1;;;6.4;;
41229;SDS011;26964;50.428;19.218;2023-05-24T17:08:46;11.8;;;8.0;;
41229;SDS011;26964;50.428;19.218;2023-05-24T17:09:46;12.2;;;6.3;;
41229;SDS011;26964;50.428;19.218;2023-05-24T17:10:46;10.1;;;6.8;;
41229;SDS011;26964;50.428;19.218;2023-05-24T17:11:46;10.3;;;6.3;;
41229;SDS011;26964;50.428;19.218;2023-05-24T17:12:46;11.5;;;6.8;;
41229;SDS011;26964;50.428;19.218;2023-05-24T17:13:46;12.5;;;6.8;;
41229;SDS011;26964;50.428;19.218;2023-05-24T17:14:46;10.6;;;7.2;;
41229;SDS011;26964;50.428;19.218;2023-05-24T17:15:46;12.0;;;7.0;;
41229;SDS011;26964;50.428;19.218;2023-05-24T17:16:46;9.5;;;6.2;;
41229;SDS011;26964;50.428;19.218;2023-05-24T17:17:46;10.8;;;6.7;;
41229;SDS011;26964;50.428;19.218;2023-05-24T17:18:46;11.0;;;6.6;;
41229;SDS011;26964;50.428;19.218;2023-05-24T17:19:46;12.5;;;6.8;;
41229;SDS011;26964;50.428;19.218;2023-05-24T17:20:46;11.0;;;6.5;;
41229;SDS011;26964;50.428;19.218;2023-05-24T17:21:46;10.8;;;6.6;;
41229;SDS011;26964;50.428;19.218;2023-05-24T17:22:46;16.6;;;6.7;;
41229;SDS011;26964;50.428;19.218;2023-05-24T17:23:46;10.0;;;6.5;;
41229;SDS011;26964;50.428;19.218;2023-05-24T17:24:46;9.1;;;6.2;;
41229;SDS011;26964;50.428;19.218;2023-05-24T17:25:46;9.4;;;6.2;;
41229;SDS011;26964;50.428;19.218;2023-05-24T17:26:46;11.6;;;7.0;;
41229;SDS011;26964;50.428;19.218;2023-05-24T17:27:46;11.5;;;6.7;;
41229;SDS011;26964;50.428;19.218;2023-05-24T17:28:46;12.3;;;6.6;;
41229;SDS011;26964;50.428;19.218;2023-05-24T17:29:46;11.5;;;6.1;;
41229;SDS011;26964;50.428;19.218;2023-05-24T17:30:46;12.5;;;7.0;;
41229;SDS011;26964;50.428;19.218;2023-05-24T17:31:46;9.2;;;5.9;;
41229;SDS011;26964;50.428;19.218;2023-05-24T17:32:46;10.8;;;6.4;;
41229;SDS011;26964;50.428;19.218;2023-05-24T17:33:46;13.0;;;6.7;;
41229;SDS011;26964;50.428;19.218;2023-05-24T17:34:46;9.2;;;6.2;;
41229;SDS011;26964;50.428;19.218;2023-05-24T17:35:46;10.8;;;6.1;;
41229;SDS011;26964;50.428;19.218;2023-05-24T17:36:46;11.0;;;6.4;;
41229;SDS011;26964;50.428;19.218;2023-05-24T17:37:46;12.9;;;6.5;;
41229;SDS011;26964;50.428;19.218;2023-05-24T17:38:46;10.5;;;6.7;;
41229;SDS011;26964;50.428;19.218;2023-05-24T17:39:46;12.1;;;6.7;;
41229;SDS011;26964;50.428;19.218;2023-05-24T17:40:46;14.6;;;7.0;;
41229;SDS011;26964;50.428;19.218;2023-05-24T17:41:46;11.0;;;7.3;;
41229;SDS011;26964;50.428;19.218;2023-05-24T17:42:46;14.6;;;6.7;;
41229;SDS011;26964;50.428;19.218;2023-05-24T17:43:46;12.9;;;6.4;;
41229;SDS011;26964;50.428;19.218;2023-05-24T17:44:46;11.4;;;6.5;;
41229;SDS011;26964;50.428;19.218;2023-05-24T17:45:46;11.7;;;6.8;;
41229;SDS011;26964;50.428;19.218;2023-05-24T17:46:46;13.0;;;7.1;;
41229;SDS011;26964;50.428;19.218;2023-05-24T17:47:46;12.2;;;6.7;;
41229;SDS011;26964;50.428;19.218;2023-05-24T17:48:46;14.1;;;7.1;;
41229;SDS011;26964;50.428;19.218;2023-05-24T17:49:46;13.2;;;6.3;;
41229;SDS011;26964;50.428;19.218;2023-05-24T17:50:46;11.2;;;6.3;;
41229;SDS011;26964;50.428;19.218;2023-05-24T17:51:46;13.5;;;6.7;;
41229;SDS011;26964;50.428;19.218;2023-05-24T17:52:46;9.8;;;6.1;;
41229;SDS011;26964;50.428;19.218;2023-05-24T17:53:46;12.1;;;6.6;;
41229;SDS011;26964;50.428;19.218;2023-05-24T17:54:46;14.4;;;7.1;;
41229;SDS011;26964;50.428;19.218;2023-05-24T17:55:46;10.3;;;6.4;;
41229;SDS011;26964;50.428;19.218;2023-05-24T17:56:46;13.5;;;7.0;;
41229;SDS011;26964;50.428;19.218;2023-05-24T17:57:47;11.9;;;6.4;;
41229;SDS011;26964;50.428;19.218;2023-05-24T17:58:46;11.6;;;7.1;;
41229;SDS011;26964;50.428;19.218;2023-05-24T17:59:46;12.3;;;6.5;;
41229;SDS011;26964;50.428;19.218;2023-05-24T18:00:46;13.2;;;7.2;;
41229;SDS011;26964;50.428;19.218;2023-05-24T18:01:46;10.7;;;6.3;;
41229;SDS011;26964;50.428;19.218;2023-05-24T18:02:46;12.3;;;6.7;;
41229;SDS011;26964;50.428;19.218;2023-05-24T18:03:46;12.2;;;6.9;;
41229;SDS011;26964;50.428;19.218;2023-05-24T18:04:46;11.8;;;7.0;;
41229;SDS011;26964;50.428;19.218;2023-05-24T18:05:46;12.1;;;7.0;;
41229;SDS011;26964;50.428;19.218;2023-05-24T18:06:46;12.1;;;6.8;;
41229;SDS011;26964;50.428;19.218;2023-05-24T18:07:46;12.6;;;6.5;;
41229;SDS011;26964;50.428;19.218;2023-05-24T18:08:46;11.2;;;6.7;;
41229;SDS011;26964;50.428;19.218;2023-05-24T18:09:46;12.6;;;6.7;;
41229;SDS011;26964;50.428;19.218;2023-05-24T18:10:46;11.9;;;6.9;;
41229;SDS011;26964;50.428;19.218;2023-05-24T18:11:46;9.9;;;6.8;;
41229;SDS011;26964;50.428;19.218;2023-05-24T18:12:46;10.7;;;6.3;;
41229;SDS011;26964;50.428;19.218;2023-05-24T18:13:46;12.7;;;7.1;;
41229;SDS011;26964;50.428;19.218;2023-05-24T18:14:46;12.6;;;7.4;;
41229;SDS011;26964;50.428;19.218;2023-05-24T18:15:46;13.1;;;6.7;;
41229;SDS011;26964;50.428;19.218;2023-05-24T18:16:46;13.6;;;6.9;;
41229;SDS011;26964;50.428;19.218;2023-05-24T18:17:46;16.1;;;6.8;;
41229;SDS011;26964;50.428;19.218;2023-05-24T18:18:46;9.6;;;6.2;;
41229;SDS011;26964;50.428;19.218;2023-05-24T18:19:46;9.8;;;6.5;;
41229;SDS011;26964;50.428;19.218;2023-05-24T18:20:46;14.1;;;7.0;;
41229;SDS011;26964;50.428;19.218;2023-05-24T18:21:46;11.8;;;6.7;;
41229;SDS011;26964;50.428;19.218;2023-05-24T18:22:46;11.1;;;6.6;;
41229;SDS011;26964;50.428;19.218;2023-05-24T18:23:46;10.8;;;6.9;;
41229;SDS011;26964;50.428;19.218;2023-05-24T18:24:46;10.7;;;6.9;;
41229;SDS011;26964;50.428;19.218;2023-05-24T18:25:46;15.3;;;7.2;;
41229;SDS011;26964;50.428;19.218;2023-05-24T18:26:46;12.9;;;7.0;;
41229;SDS011;26964;50.428;19.218;2023-05-24T18:27:46;10.7;;;6.6;;
41229;SDS011;26964;50.428;19.218;2023-05-24T18:28:46;13.7;;;6.7;;
41229;SDS011;26964;50.428;19.218;2023-05-24T18:29:46;13.5;;;7.7;;
41229;SDS011;26964;50.428;19.218;2023-05-24T18:30:46;11.2;;;7.0;;
41229;SDS011;26964;50.428;19.218;2023-05-24T18:31:46;15.3;;;7.2;;
41229;SDS011;26964;50.428;19.218;2023-05-24T18:32:46;13.8;;;7.4;;
41229;SDS011;26964;50.428;19.218;2023-05-24T18:33:46;12.3;;;6.4;;
41229;SDS011;26964;50.428;19.218;2023-05-24T18:34:46;15.0;;;8.0;;
41229;SDS011;26964;50.428;19.218;2023-05-24T18:35:46;14.8;;;6.7;;
41229;SDS011;26964;50.428;19.218;2023-05-24T18:36:46;11.8;;;7.3;;
41229;SDS011;26964;50.428;19.218;2023-05-24T18:37:46;12.5;;;6.8;;
41229;SDS011;26964;50.428;19.218;2023-05-24T18:38:46;16.7;;;6.8;;
41229;SDS011;26964;50.428;19.218;2023-05-24T18:39:46;14.9;;;7.1;;
41229;SDS011;26964;50.428;19.218;2023-05-24T18:40:46;11.5;;;6.5;;
41229;SDS011;26964;50.428;19.218;2023-05-24T18:41:46;13.6;;;7.1;;
41229;SDS011;26964;50.428;19.218;2023-05-24T18:42:46;11.3;;;7.4;;
41229;SDS011;26964;50.428;19.218;2023-05-24T18:44:02;11.7;;;7.1;;
41229;SDS011;26964;50.428;19.218;2023-05-24T18:44:46;14.3;;;7.5;;
41229;SDS011;26964;50.428;19.218;2023-05-24T18:45:47;12.5;;;6.8;;
41229;SDS011;26964;50.428;19.218;2023-05-24T18:46:46;13.7;;;7.3;;
41229;SDS011;26964;50.428;19.218;2023-05-24T18:47:46;14.8;;;7.5;;
41229;SDS011;26964;50.428;19.218;2023-05-24T18:48:46;17.1;;;7.6;;
41229;SDS011;26964;50.428;19.218;2023-05-24T18:49:46;13.6;;;7.8;;
41229;SDS011;26964;50.428;19.218;2023-05-24T18:50:46;10.8;;;7.0;;
41229;SDS011;26964;50.428;19.218;2023-05-24T18:51:46;12.4;;;7.4;;
41229;SDS011;26964;50.428;19.218;2023-05-24T18:52:46;12.5;;;7.5;;
41229;SDS011;26964;50.428;19.218;2023-05-24T18:53:46;12.3;;;7.3;;
41229;SDS011;26964;50.428;19.218;2023-05-24T18:54:46;14.7;;;7.5;;
41229;SDS011;26964;50.428;19.218;2023-05-24T18:55:46;11.9;;;7.2;;
41229;SDS011;26964;50.428;19.218;2023-05-24T18:56:46;14.7;;;7.6;;
41229;SDS011;26964;50.428;19.218;2023-05-24T18:57:46;13.1;;;8.0;;
41229;SDS011;26964;50.428;19.218;2023-05-24T18:58:46;16.0;;;8.0;;
41229;SDS011;26964;50.428;19.218;2023-05-24T18:59:47;12.4;;;7.2;;
41229;SDS011;26964;50.428;19.218;2023-05-24T19:00:46;11.5;;;7.2;;
41229;SDS011;26964;50.428;19.218;2023-05-24T19:01:46;15.1;;;7.4;;
41229;SDS011;26964;50.428;19.218;2023-05-24T19:02:46;15.8;;;8.4;;
41229;SDS011;26964;50.428;19.218;2023-05-24T19:03:46;14.0;;;7.0;;
41229;SDS011;26964;50.428;19.218;2023-05-24T19:04:46;11.3;;;7.4;;
41229;SDS011;26964;50.428;19.218;2023-05-24T19:05:46;12.1;;;7.3;;
41229;SDS011;26964;50.428;19.218;2023-05-24T19:06:46;12.2;;;7.4;;
41229;SDS011;26964;50.428;19.218;2023-05-24T19:07:55;18.0;;;8.4;;
41229;SDS011;26964;50.428;19.218;2023-05-24T19:08:46;14.9;;;7.1;;
41229;SDS011;26964;50.428;19.218;2023-05-24T19:09:46;16.9;;;8.3;;
41229;SDS011;26964;50.428;19.218;2023-05-24T19:10:46;13.2;;;7.2;;
41229;SDS011;26964;50.428;19.218;2023-05-24T19:12:53;17.7;;;8.3;;
41229;SDS011;26964;50.428;19.218;2023-05-24T19:13:46;11.5;;;7.2;;
41229;SDS011;26964;50.428;19.218;2023-05-24T19:14:46;14.6;;;7.8;;
41229;SDS011;26964;50.428;19.218;2023-05-24T19:15:46;12.1;;;7.7;;
41229;SDS011;26964;50.428;19.218;2023-05-24T19:16:46;13.7;;;7.3;;
41229;SDS011;26964;50.428;19.218;2023-05-24T19:17:46;11.8;;;7.2;;
41229;SDS011;26964;50.428;19.218;2023-05-24T19:18:46;13.5;;;7.3;;
41229;SDS011;26964;50.428;19.218;2023-05-24T19:19:46;13.4;;;7.5;;
41229;SDS011;26964;50.428;19.218;2023-05-24T19:20:46;15.4;;;7.8;;
41229;SDS011;26964;50.428;19.218;2023-05-24T19:21:46;20.2;;;8.9;;
41229;SDS011;26964;50.428;19.218;2023-05-24T19:22:46;11.9;;;7.4;;
41229;SDS011;26964;50.428;19.218;2023-05-24T19:23:46;16.6;;;7.1;;
41229;SDS011;26964;50.428;19.218;2023-05-24T19:24:46;12.9;;;7.8;;
41229;SDS011;26964;50.428;19.218;2023-05-24T19:25:46;13.8;;;7.7;;
41229;SDS011;26964;50.428;19.218;2023-05-24T19:26:46;13.8;;;7.6;;
41229;SDS011;26964;50.428;19.218;2023-05-24T19:27:46;13.4;;;7.4;;
41229;SDS011;26964;50.428;19.218;2023-05-24T19:28:46;14.3;;;8.0;;
41229;SDS011;26964;50.428;19.218;2023-05-24T19:29:46;14.7;;;8.1;;
41229;SDS011;26964;50.428;19.218;2023-05-24T19:30:46;13.5;;;8.0;;
41229;SDS011;26964;50.428;19.218;2023-05-24T19:31:46;11.0;;;7.3;;
41229;SDS011;26964;50.428;19.218;2023-05-24T19:32:46;15.6;;;8.2;;
41229;SDS011;26964;50.428;19.218;2023-05-24T19:33:46;12.4;;;7.6;;
41229;SDS011;26964;50.428;19.218;2023-05-24T19:34:46;12.3;;;7.3;;
41229;SDS011;26964;50.428;19.218;2023-05-24T19:35:46;14.9;;;7.6;;
41229;SDS011;26964;50.428;19.218;2023-05-24T19:36:46;14.0;;;7.9;;
41229;SDS011;26964;50.428;19.218;2023-05-24T19:37:46;15.5;;;8.1;;
41229;SDS011;26964;50.428;19.218;2023-05-24T19:38:46;14.9;;;9.2;;
41229;SDS011;26964;50.428;19.218;2023-05-24T19:39:46;14.9;;;8.0;;
41229;SDS011;26964;50.428;19.218;2023-05-24T19:40:46;14.4;;;8.0;;
41229;SDS011;26964;50.428;19.218;2023-05-24T19:41:46;15.1;;;8.6;;
41229;SDS011;26964;50.428;19.218;2023-05-24T19:42:46;12.8;;;8.4;;
41229;SDS011;26964;50.428;19.218;2023-05-24T19:43:46;15.2;;;8.1;;
41229;SDS011;26964;50.428;19.218;2023-05-24T19:44:46;14.5;;;8.9;;
41229;SDS011;26964;50.428;19.218;2023-05-24T19:45:46;14.9;;;7.8;;
41229;SDS011;26964;50.428;19.218;2023-05-24T19:46:46;16.0;;;8.4;;
41229;SDS011;26964;50.428;19.218;2023-05-24T19:47:46;16.3;;;9.1;;
41229;SDS011;26964;50.428;19.218;2023-05-24T19:48:46;17.4;;;8.5;;
41229;SDS011;26964;50.428;19.218;2023-05-24T19:49:46;13.7;;;8.6;;
41229;SDS011;26964;50.428;19.218;2023-05-24T19:50:46;13.8;;;8.7;;
41229;SDS011;26964;50.428;19.218;2023-05-24T19:51:46;15.4;;;8.2;;
41229;SDS011;26964;50.428;19.218;2023-05-24T19:52:46;17.1;;;8.7;;
41229;SDS011;26964;50.428;19.218;2023-05-24T19:53:46;13.7;;;8.3;;
41229;SDS011;26964;50.428;19.218;2023-05-24T19:54:46;14.3;;;8.3;;
41229;SDS011;26964;50.428;19.218;2023-05-24T19:55:46;16.5;;;9.7;;
41229;SDS011;26964;50.428;19.218;2023-05-24T19:56:46;16.6;;;9.6;;
41229;SDS011;26964;50.428;19.218;2023-05-24T19:57:46;14.9;;;9.3;;
41229;SDS011;26964;50.428;19.218;2023-05-24T19:58:46;16.9;;;9.1;;
41229;SDS011;26964;50.428;19.218;2023-05-24T19:59:46;14.5;;;8.6;;
41229;SDS011;26964;50.428;19.218;2023-05-24T20:00:46;15.9;;;8.6;;
41229;SDS011;26964;50.428;19.218;2023-05-24T20:01:46;19.8;;;9.1;;
41229;SDS011;26964;50.428;19.218;2023-05-24T20:02:46;14.3;;;8.5;;
41229;SDS011;26964;50.428;19.218;2023-05-24T20:03:46;15.1;;;8.1;;
41229;SDS011;26964;50.428;19.218;2023-05-24T20:04:46;13.9;;;8.9;;
41229;SDS011;26964;50.428;19.218;2023-05-24T20:05:46;13.7;;;8.6;;
41229;SDS011;26964;50.428;19.218;2023-05-24T20:06:46;17.7;;;9.2;;
41229;SDS011;26964;50.428;19.218;2023-05-24T20:07:46;13.7;;;8.6;;
41229;SDS011;26964;50.428;19.218;2023-05-24T20:08:46;12.4;;;7.8;;
41229;SDS011;26964;50.428;19.218;2023-05-24T20:09:46;15.1;;;8.4;;
41229;SDS011;26964;50.428;19.218;2023-05-24T20:10:46;13.9;;;8.8;;
41229;SDS011;26964;50.428;19.218;2023-05-24T20:11:46;15.4;;;9.5;;
41229;SDS011;26964;50.428;19.218;2023-05-24T20:12:46;15.1;;;9.6;;
41229;SDS011;26964;50.428;19.218;2023-05-24T20:13:46;14.6;;;9.9;;
41229;SDS011;26964;50.428;19.218;2023-05-24T20:14:46;14.2;;;9.1;;
41229;SDS011;26964;50.428;19.218;2023-05-24T20:15:46;13.7;;;9.6;;
41229;SDS011;26964;50.428;19.218;2023-05-24T20:16:46;15.0;;;9.4;;
41229;SDS011;26964;50.428;19.218;2023-05-24T20:17:46;17.7;;;9.6;;
41229;SDS011;26964;50.428;19.218;2023-05-24T20:18:46;15.1;;;9.3;;
41229;SDS011;26964;50.428;19.218;2023-05-24T20:19:46;14.7;;;9.0;;
41229;SDS011;26964;50.428;19.218;2023-05-24T20:20:46;14.5;;;9.8;;
41229;SDS011;26964;50.428;19.218;2023-05-24T20:21:46;17.7;;;9.6;;
41229;SDS011;26964;50.428;19.218;2023-05-24T20:22:46;14.1;;;9.2;;
41229;SDS011;26964;50.428;19.218;2023-05-24T20:23:46;16.7;;;9.6;;
41229;SDS011;26964;50.428;19.218;2023-05-24T20:24:46;12.6;;;8.8;;
41229;SDS011;26964;50.428;19.218;2023-05-24T20:25:46;17.3;;;9.3;;
41229;SDS011;26964;50.428;19.218;2023-05-24T20:26:46;13.3;;;9.3;;
41229;SDS011;26964;50.428;19.218;2023-05-24T20:27:46;15.7;;;9.4;;
41229;SDS011;26964;50.428;19.218;2023-05-24T20:28:46;12.5;;;9.2;;
41229;SDS011;26964;50.428;19.218;2023-05-24T20:29:46;17.0;;;9.2;;
41229;SDS011;26964;50.428;19.218;2023-05-24T20:30:46;18.5;;;10.3;;
41229;SDS011;26964;50.428;19.218;2023-05-24T20:31:46;16.0;;;10.2;;
41229;SDS011;26964;50.428;19.218;2023-05-24T20:32:46;16.2;;;9.7;;
41229;SDS011;26964;50.428;19.218;2023-05-24T20:33:47;17.6;;;9.7;;
41229;SDS011;26964;50.428;19.218;2023-05-24T20:34:46;15.5;;;10.0;;
41229;SDS011;26964;50.428;19.218;2023-05-24T20:35:46;14.3;;;9.9;;
41229;SDS011;26964;50.428;19.218;2023-05-24T20:36:46;16.6;;;9.5;;
41229;SDS011;26964;50.428;19.218;2023-05-24T20:37:46;14.5;;;9.4;;
41229;SDS011;26964;50.428;19.218;2023-05-24T20:38:46;13.9;;;9.8;;
41229;SDS011;26964;50.428;19.218;2023-05-24T20:39:46;14.2;;;9.1;;
41229;SDS011;26964;50.428;19.218;2023-05-24T20:40:46;16.5;;;9.7;;
41229;SDS011;26964;50.428;19.218;2023-05-24T20:41:46;14.6;;;10.1;;
41229;SDS011;26964;50.428;19.218;2023-05-24T20:42:46;14.5;;;9.7;;
41229;SDS011;26964;50.428;19.218;2023-05-24T20:43:46;14.9;;;10.0;;
41229;SDS011;26964;50.428;19.218;2023-05-24T20:44:46;13.8;;;9.6;;
41229;SDS011;26964;50.428;19.218;2023-05-24T20:45:46;14.3;;;10.0;;
41229;SDS011;26964;50.428;19.218;2023-05-24T20:46:46;15.2;;;9.9;;
41229;SDS011;26964;50.428;19.218;2023-05-24T20:47:46;15.8;;;10.7;;
41229;SDS011;26964;50.428;19.218;2023-05-24T20:48:46;17.4;;;11.2;;
41229;SDS011;26964;50.428;19.218;2023-05-24T20:49:46;13.1;;;10.4;;
41229;SDS011;26964;50.428;19.218;2023-05-24T20:50:46;18.0;;;11.7;;
41229;SDS011;26964;50.428;19.218;2023-05-24T20:51:46;17.3;;;11.5;;
41229;SDS011;26964;50.428;19.218;2023-05-24T20:52:46;18.5;;;11.7;;
41229;SDS011;26964;50.428;19.218;2023-05-24T20:53:46;18.4;;;11.4;;
41229;SDS011;26964;50.428;19.218;2023-05-24T20:54:46;16.0;;;11.6;;
41229;SDS011;26964;50.428;19.218;2023-05-24T20:55:46;16.8;;;10.9;;
41229;SDS011;26964;50.428;19.218;2023-05-24T20:56:46;16.3;;;11.5;;
41229;SDS011;26964;50.428;19.218;2023-05-24T20:57:46;17.0;;;11.5;;
41229;SDS011;26964;50.428;19.218;2023-05-24T20:58:46;19.1;;;11.2;;
41229;SDS011;26964;50.428;19.218;2023-05-24T20:59:46;19.5;;;12.2;;
41229;SDS011;26964;50.428;19.218;2023-05-24T21:00:46;17.1;;;11.8;;
41229;SDS011;26964;50.428;19.218;2023-05-24T21:01:46;16.7;;;11.6;;
41229;SDS011;26964;50.428;19.218;2023-05-24T21:02:46;20.3;;;13.6;;
41229;SDS011;26964;50.428;19.218;2023-05-24T21:03:46;25.2;;;15.6;;
41229;SDS011;26964;50.428;19.218;2023-05-24T21:04:46;20.3;;;13.6;;
41229;SDS011;26964;50.428;19.218;2023-05-24T21:05:46;17.8;;;12.1;;
41229;SDS011;26964;50.428;19.218;2023-05-24T21:06:46;21.0;;;12.4;;
41229;SDS011;26964;50.428;19.218;2023-05-24T21:07:46;17.8;;;12.0;;
41229;SDS011;26964;50.428;19.218;2023-05-24T21:08:45;19.7;;;11.9;;
41229;SDS011;26964;50.428;19.218;2023-05-24T21:09:46;18.8;;;11.6;;
41229;SDS011;26964;50.428;19.218;2023-05-24T21:10:46;17.4;;;11.3;;
41229;SDS011;26964;50.428;19.218;2023-05-24T21:11:46;21.1;;;11.1;;
41229;SDS011;26964;50.428;19.218;2023-05-24T21:12:46;16.8;;;10.8;;
41229;SDS011;26964;50.428;19.218;2023-05-24T21:13:46;16.4;;;10.8;;
41229;SDS011;26964;50.428;19.218;2023-05-24T21:14:46;18.5;;;11.1;;
41229;SDS011;26964;50.428;19.218;2023-05-24T21:15:46;17.0;;;11.2;;
41229;SDS011;26964;50.428;19.218;2023-05-24T21:16:46;21.2;;;10.6;;
41229;SDS011;26964;50.428;19.218;2023-05-24T21:17:46;15.8;;;10.2;;
41229;SDS011;26964;50.428;19.218;2023-05-24T21:18:46;17.8;;;10.7;;
41229;SDS011;26964;50.428;19.218;2023-05-24T21:19:45;17.2;;;11.1;;
41229;SDS011;26964;50.428;19.218;2023-05-24T21:20:46;17.4;;;11.2;;
41229;SDS011;26964;50.428;19.218;2023-05-24T21:21:45;17.3;;;11.0;;
41229;SDS011;26964;50.428;19.218;2023-05-24T21:22:45;19.9;;;11.5;;
41229;SDS011;26964;50.428;19.218;2023-05-24T21:23:45;19.5;;;11.1;;
41229;SDS011;26964;50.428;19.218;2023-05-24T21:24:46;19.7;;;11.7;;
41229;SDS011;26964;50.428;19.218;2023-05-24T21:25:45;17.5;;;11.0;;
41229;SDS011;26964;50.428;19.218;2023-05-24T21:26:45;18.8;;;12.3;;
41229;SDS011;26964;50.428;19.218;2023-05-24T21:27:46;17.8;;;11.4;;
41229;SDS011;26964;50.428;19.218;2023-05-24T21:28:46;17.0;;;11.3;;
41229;SDS011;26964;50.428;19.218;2023-05-24T21:29:45;18.9;;;12.5;;
41229;SDS011;26964;50.428;19.218;2023-05-24T21:30:46;16.4;;;11.2;;
41229;SDS011;26964;50.428;19.218;2023-05-24T21:31:46;20.4;;;13.8;;
41229;SDS011;26964;50.428;19.218;2023-05-24T21:32:45;20.8;;;12.7;;
41229;SDS011;26964;50.428;19.218;2023-05-24T21:33:45;19.4;;;12.5;;
41229;SDS011;26964;50.428;19.218;2023-05-24T21:34:45;22.5;;;13.6;;
41229;SDS011;26964;50.428;19.218;2023-05-24T21:35:45;22.7;;;13.1;;
41229;SDS011;26964;50.428;19.218;2023-05-24T21:36:45;21.4;;;15.0;;
41229;SDS011;26964;50.428;19.218;2023-05-24T21:37:46;19.4;;;12.5;;
41229;SDS011;26964;50.428;19.218;2023-05-24T21:38:46;24.2;;;13.6;;
41229;SDS011;26964;50.428;19.218;2023-05-24T21:39:46;18.0;;;12.8;;
41229;SDS011;26964;50.428;19.218;2023-05-24T21:40:46;23.2;;;13.5;;
41229;SDS011;26964;50.428;19.218;2023-05-24T21:41:45;21.9;;;13.2;;
41229;SDS011;26964;50.428;19.218;2023-05-24T21:42:46;21.5;;;13.2;;
41229;SDS011;26964;50.428;19.218;2023-05-24T21:43:46;19.7;;;14.7;;
41229;SDS011;26964;50.428;19.218;2023-05-24T21:44:45;20.5;;;14.6;;
41229;SDS011;26964;50.428;19.218;2023-05-24T21:45:46;21.4;;;14.6;;
41229;SDS011;26964;50.428;19.218;2023-05-24T21:46:45;20.3;;;14.4;;
41229;SDS011;26964;50.428;19.218;2023-05-24T21:47:45;20.3;;;14.4;;
41229;SDS011;26964;50.428;19.218;2023-05-24T21:48:45;19.7;;;14.0;;
41229;SDS011;26964;50.428;19.218;2023-05-24T21:49:45;27.2;;;15.0;;
41229;SDS011;26964;50.428;19.218;2023-05-24T21:50:46;21.6;;;13.3;;
41229;SDS011;26964;50.428;19.218;2023-05-24T21:51:46;20.7;;;13.9;;
41229;SDS011;26964;50.428;19.218;2023-05-24T21:52:45;22.1;;;13.8;;
41229;SDS011;26964;50.428;19.218;2023-05-24T21:53:45;21.4;;;13.9;;
41229;SDS011;26964;50.428;19.218;2023-05-24T21:54:45;18.5;;;13.7;;
41229;SDS011;26964;50.428;19.218;2023-05-24T21:55:45;23.1;;;14.0;;
41229;SDS011;26964;50.428;19.218;2023-05-24T21:56:46;22.2;;;14.3;;
41229;SDS011;26964;50.428;19.218;2023-05-24T21:57:45;18.6;;;12.8;;
41229;SDS011;26964;50.428;19.218;2023-05-24T21:58:45;19.6;;;13.9;;
41229;SDS011;26964;50.428;19.218;2023-05-24T21:59:45;21.4;;;13.2;;
41229;SDS011;26964;50.428;19.218;2023-05-24T22:00:46;22.5;;;13.8;;
41229;SDS011;26964;50.428;19.218;2023-05-24T22:01:46;20.7;;;13.8;;
41229;SDS011;26964;50.428;19.218;2023-05-24T22:02:45;20.3;;;13.0;;
41229;SDS011;26964;50.428;19.218;2023-05-24T22:03:46;15.8;;;12.6;;
41229;SDS011;26964;50.428;19.218;2023-05-24T22:04:46;19.4;;;12.9;;
41229;SDS011;26964;50.428;19.218;2023-05-24T22:05:45;20.7;;;12.6;;
41229;SDS011;26964;50.428;19.218;2023-05-24T22:06:45;18.3;;;13.0;;
41229;SDS011;26964;50.428;19.218;2023-05-24T22:07:45;18.5;;;12.3;;
41229;SDS011;26964;50.428;19.218;2023-05-24T22:08:45;18.5;;;13.1;;
41229;SDS011;26964;50.428;19.218;2023-05-24T22:09:45;16.6;;;12.1;;
41229;SDS011;26964;50.428;19.218;2023-05-24T22:10:45;17.0;;;11.5;;
41229;SDS011;26964;50.428;19.218;2023-05-24T22:11:45;21.8;;;13.6;;
41229;SDS011;26964;50.428;19.218;2023-05-24T22:12:46;18.0;;;12.9;;
41229;SDS011;26964;50.428;19.218;2023-05-24T22:13:45;20.1;;;12.4;;
41229;SDS011;26964;50.428;19.218;2023-05-24T22:14:45;19.7;;;12.2;;
41229;SDS011;26964;50.428;19.218;2023-05-24T22:15:45;24.2;;;13.2;;
41229;SDS011;26964;50.428;19.218;2023-05-24T22:16:45;18.6;;;12.6;;
41229;SDS011;26964;50.428;19.218;2023-05-24T22:17:45;17.1;;;12.4;;
41229;SDS011;26964;50.428;19.218;2023-05-24T22:18:45;18.6;;;12.4;;
41229;SDS011;26964;50.428;19.218;2023-05-24T22:19:45;19.4;;;13.3;;